»·PEaware :: EJM367 KELP-KTUS

EJM367 :: KELP-KTUS

FLIGHT INFORMATION

Flight Status: Arrived
Operator: Unknown
More flights by this operator :: More flights under this callsign
Pilot: Adam M. (17337)
Aircraft: CESSNA 750 CITATION 10
(C750)
More flights by this aircraft type
Origin: KELP El Paso Intl
United States
Destination: KTUS Tucson Intl
United States
More flights between these airports :: More routes between these airports
Route: ATKNN5 FLOGS SSO ZONNA1
File this flight plan on PilotEdge
Remarks: RMK / SIMBRIEF
Altitude:
(Current/Filed)
36,000ft
Speed:
(Current/Filed)
530kts
Departed: 23-Nov-21 09:05 PM
Arrived: 23-Nov-21 09:56 PM
Distance/Time
Traveled:
233nm/0:51
Distance/Time
To Go:
Arrived

Flight Plot

Page will automatically refresh every two minutes.

Flight plan parsing failed; only flown route is shown


Map Options




Map Legend


Flown Route
Filed Route
Departure Airport
Arrival Airport
Navaid (VOR, NDB)
Fix

Horizontal Profiles

Position Reports

Time Latitude Longitude Heading Altitude Ground
Speed
23-Nov-21 20:42 31.798181 -106.377083 181 3962ft 0kts
23-Nov-21 20:43 31.798181 -106.377083 181 3962ft 0kts
23-Nov-21 20:44 31.798181 -106.377083 181 3962ft 0kts
23-Nov-21 20:45 31.798181 -106.377083 181 3962ft 0kts
23-Nov-21 20:46 31.798181 -106.377083 181 3962ft 0kts
23-Nov-21 20:47 31.798181 -106.377083 181 3962ft 0kts
23-Nov-21 20:48 31.798181 -106.377083 181 3962ft 0kts
23-Nov-21 20:49 31.798181 -106.377083 181 3962ft 0kts
23-Nov-21 20:50 31.798181 -106.377083 181 3962ft 0kts
23-Nov-21 20:51 31.798181 -106.377083 181 3962ft 0kts
23-Nov-21 20:52 31.798181 -106.377083 181 3962ft 0kts
23-Nov-21 20:53 31.798181 -106.377083 181 3962ft 0kts
23-Nov-21 20:54 31.798181 -106.377083 181 3962ft 0kts
23-Nov-21 20:55 31.798181 -106.377083 181 3962ft 0kts
23-Nov-21 20:56 31.798181 -106.377083 181 3962ft 0kts
23-Nov-21 20:57 31.798181 -106.377083 181 3962ft 0kts
23-Nov-21 20:58 31.798179 -106.377083 181 3962ft 0kts
23-Nov-21 20:59 31.798122 -106.377082 173 3962ft 4kts
23-Nov-21 21:00 31.799353 -106.377889 6 3962ft 6kts
23-Nov-21 21:01 31.799563 -106.373024 93 3962ft 17kts
23-Nov-21 21:02 31.799343 -106.367236 92 3962ft 12kts
23-Nov-21 21:03 31.799896 -106.363804 358 3962ft 8kts
23-Nov-21 21:04 31.800855 -106.368304 276 3962ft 78kts
23-Nov-21 21:05 31.802895 -106.419856 272 5606ft 191kts
23-Nov-21 21:06 31.822467 -106.476553 234 8552ft 217kts
23-Nov-21 21:07 31.799390 -106.522994 260 10808ft 216kts
23-Nov-21 21:08 31.806520 -106.605857 282 14414ft 307kts
23-Nov-21 21:09 31.829937 -106.710310 280 17100ft 353kts
23-Nov-21 21:10 31.850990 -106.821302 278 20468ft 354kts
23-Nov-21 21:11 31.871708 -106.935891 278 23967ft 364kts
23-Nov-21 21:12 31.893048 -107.054348 278 27476ft 377kts
23-Nov-21 21:13 31.915239 -107.178280 277 30644ft 395kts
23-Nov-21 21:14 31.938261 -107.307325 277 33656ft 409kts
23-Nov-21 21:15 31.961534 -107.438096 277 35993ft 407kts
23-Nov-21 21:16 31.984941 -107.571532 277 36077ft 440kts
23-Nov-21 21:17 32.010240 -107.717000 277 36071ft 463kts
23-Nov-21 21:18 32.036485 -107.867510 277 36073ft 471kts
23-Nov-21 21:19 32.062752 -108.019147 277 36076ft 474kts
23-Nov-21 21:20 32.088919 -108.171434 277 36077ft 475kts
23-Nov-21 21:21 32.114935 -108.324346 277 36085ft 476kts
23-Nov-21 21:22 32.140688 -108.477047 276 36085ft 476kts
23-Nov-21 21:23 32.166371 -108.630464 276 36079ft 476kts
23-Nov-21 21:24 32.191878 -108.784233 276 36070ft 476kts
23-Nov-21 21:25 32.217010 -108.936990 276 36060ft 474kts
23-Nov-21 21:26 32.241887 -109.089503 275 35977ft 473kts
23-Nov-21 21:27 32.264432 -109.235317 271 33827ft 443kts
23-Nov-21 21:28 32.260252 -109.377011 260 31551ft 417kts
23-Nov-21 21:29 32.245719 -109.510186 259 29254ft 401kts
23-Nov-21 21:30 32.231438 -109.638990 259 26952ft 391kts
23-Nov-21 21:31 32.218030 -109.765201 259 24650ft 384kts
23-Nov-21 21:32 32.205201 -109.889068 259 22358ft 378kts
23-Nov-21 21:33 32.192630 -110.011630 259 20055ft 374kts
23-Nov-21 21:34 32.179883 -110.134442 259 17757ft 379kts
23-Nov-21 21:35 32.167070 -110.256766 259 16035ft 379kts
23-Nov-21 21:36 32.179270 -110.372804 290 16021ft 353kts
23-Nov-21 21:37 32.227956 -110.472347 296 16009ft 349kts
23-Nov-21 21:38 32.278334 -110.569972 296 16001ft 347kts
23-Nov-21 21:39 32.327628 -110.668578 295 15535ft 352kts
23-Nov-21 21:40 32.373917 -110.760073 296 14418ft 344kts
23-Nov-21 21:41 32.421248 -110.853352 297 12327ft 305kts
23-Nov-21 21:42 32.465251 -110.941168 297 10730ft 328kts
23-Nov-21 21:43 32.504260 -111.028404 283 9637ft 261kts
23-Nov-21 21:44 32.501639 -111.108400 248 8814ft 237kts
23-Nov-21 21:45 32.465205 -111.171159 219 7491ft 230kts
23-Nov-21 21:46 32.408296 -111.201941 189 6384ft 223kts
23-Nov-21 21:48 32.351562 -111.196240 162 6177ft 197kts
23-Nov-21 21:49 32.303989 -111.161472 138 6070ft 198kts
23-Nov-21 21:50 32.266725 -111.116663 137 5562ft 186kts
23-Nov-21 21:51 32.231864 -111.075450 138 4969ft 160kts
23-Nov-21 21:52 32.200621 -111.038746 138 4623ft 159kts
23-Nov-21 21:53 32.169093 -111.001579 138 3793ft 144kts
23-Nov-21 21:54 32.141405 -110.968871 140 3222ft 139kts
23-Nov-21 21:55 32.115203 -110.938470 136 2647ft 63kts
23-Nov-21 21:56 32.114574 -110.935945 313 2647ft 18kts
23-Nov-21 21:57 32.118093 -110.940135 315 2647ft 24kts
23-Nov-21 21:58 32.122489 -110.945324 313 2647ft 18kts
23-Nov-21 21:59 32.126014 -110.946644 64 2647ft 10kts
23-Nov-21 22:00 32.125172 -110.945477 315 2647ft 0kts
23-Nov-21 22:01 32.125172 -110.945477 315 2647ft 0kts
23-Nov-21 22:02 32.125172 -110.945477 315 2647ft 0kts
23-Nov-21 22:03 32.125172 -110.945477 315 2647ft 0kts
23-Nov-21 22:04 32.125172 -110.945477 315 2647ft 0kts

Navigation Log

Ident Type
Flight plan parsing failed, navigation log unavailable